Time;durP1;ratioP1;P1;durP2;ratioP2;P2;SDS_P1;SDS_P2;PMS_P1;PMS_P2;Temp;Humidity;BMP_temperature;BMP_pressure;BME280_temperature;BME280_humidity;BME280_pressure;Samples;Min_cycle;Max_cycle;Signal;HPM_P1;HPM_P2
2023/03/24 00:01:22;;;;;;;2.72;0.80;;;19.90;63.20;;;;;;5035278;28;20040;-69
2023/03/24 00:03:50;;;;;;;2.30;0.88;;;19.80;63.10;;;;;;5053438;28;20492;-69
2023/03/24 00:06:17;;;;;;;1.40;0.77;;;19.90;63.10;;;;;;5034775;28;20400;-69
2023/03/24 00:08:46;;;;;;;1.83;0.73;;;19.80;63.10;;;;;;5035606;28;20086;-69
2023/03/24 00:11:13;;;;;;;2.92;1.00;;;19.80;63.00;;;;;;5035117;28;20067;-69
2023/03/24 00:13:38;;;;;;;3.65;0.80;;;19.80;63.10;;;;;;5034899;28;20070;-69
2023/03/24 00:16:11;;;;;;;3.05;0.90;;;19.90;63.10;;;;;;5035202;28;20132;-69
2023/03/24 00:18:38;;;;;;;2.03;0.90;;;19.80;63.00;;;;;;5035772;28;20041;-69
2023/03/24 00:21:04;;;;;;;2.63;0.90;;;19.80;63.00;;;;;;5034137;28;20078;-69
2023/03/24 00:23:31;;;;;;;2.65;0.90;;;19.80;63.00;;;;;;5034214;28;20045;-69
2023/03/24 00:26:01;;;;;;;1.65;0.80;;;19.80;63.00;;;;;;5034785;28;20041;-69
2023/03/24 00:28:30;;;;;;;2.20;0.73;;;19.80;63.00;;;;;;5053304;28;20056;-69
2023/03/24 00:30:56;;;;;;;3.08;0.95;;;19.80;63.00;;;;;;5052864;28;20045;-69
2023/03/24 00:33:22;;;;;;;2.38;0.90;;;19.80;63.00;;;;;;5052342;28;20041;-69
2023/03/24 00:35:48;;;;;;;2.25;0.82;;;19.80;63.00;;;;;;5053008;28;20049;-69
2023/03/24 00:38:14;;;;;;;2.20;0.90;;;19.70;62.90;;;;;;5034749;28;20091;-69
2023/03/24 00:40:44;;;;;;;3.03;0.90;;;19.70;62.90;;;;;;5034151;28;20052;-69
2023/03/24 00:43:12;;;;;;;2.20;1.00;;;19.70;62.90;;;;;;5052419;28;20463;-69
2023/03/24 00:45:44;;;;;;;1.58;0.80;;;19.70;62.90;;;;;;5052611;28;20505;-69
2023/03/24 00:48:13;;;;;;;2.90;0.90;;;19.70;62.90;;;;;;5051596;28;20124;-69
2023/03/24 00:50:43;;;;;;;2.85;1.08;;;19.70;62.90;;;;;;5052696;28;20050;-69
2023/03/24 00:53:09;;;;;;;2.90;1.00;;;19.70;63.50;;;;;;5035365;28;20536;-69
2023/03/24 00:55:36;;;;;;;3.42;0.90;;;19.70;62.90;;;;;;5052230;28;20124;-69
2023/03/24 00:58:02;;;;;;;3.15;0.80;;;19.70;62.90;;;;;;5052512;28;20472;-70
2023/03/24 01:00:28;;;;;;;2.05;0.88;;;19.70;62.90;;;;;;5052713;28;20047;-69
2023/03/24 01:02:56;;;;;;;2.17;0.70;;;19.70;62.90;;;;;;5051920;28;20382;-69
2023/03/24 01:05:23;;;;;;;3.17;0.98;;;19.70;62.90;;;;;;5052158;28;20049;-69
2023/03/24 01:07:52;;;;;;;3.90;0.80;;;19.70;62.90;;;;;;5034814;28;20045;-69
2023/03/24 01:10:20;;;;;;;4.70;0.80;;;19.70;62.80;;;;;;5033216;28;20475;-69
2023/03/24 01:12:46;;;;;;;1.98;0.85;;;19.70;62.80;;;;;;5034725;28;20392;-69
2023/03/24 01:15:16;;;;;;;1.98;0.88;;;19.70;62.80;;;;;;5050907;28;20053;-69
2023/03/24 01:17:41;;;;;;;3.25;1.05;;;19.70;62.80;;;;;;5052441;28;20075;-69
2023/03/24 01:20:10;;;;;;;2.28;0.80;;;19.70;62.80;;;;;;5052332;28;20487;-69
2023/03/24 01:22:40;;;;;;;1.80;0.90;;;19.70;62.80;;;;;;5033562;28;20471;-69
2023/03/24 01:25:15;;;;;;;4.13;1.02;;;19.70;62.80;;;;;;5051736;28;20041;-69
2023/03/24 01:27:44;;;;;;;3.15;1.00;;;19.60;62.70;;;;;;5035306;28;20048;-69
2023/03/24 01:30:11;;;;;;;2.80;0.80;;;19.60;62.80;;;;;;5051032;28;20049;-67
2023/03/24 01:32:37;;;;;;;2.05;0.70;;;19.60;62.70;;;;;;5034715;28;20083;-67
2023/03/24 01:35:03;;;;;;;2.85;1.00;;;19.60;62.70;;;;;;5058442;28;20080;-67
2023/03/24 01:37:29;;;;;;;1.90;0.80;;;19.60;62.70;;;;;;5057926;28;20045;-69
2023/03/24 01:39:55;;;;;;;3.25;0.90;;;19.60;62.70;;;;;;5040901;28;20044;-68
2023/03/24 01:42:22;;;;;;;2.95;0.90;;;19.60;62.70;;;;;;5058015;28;20155;-67
2023/03/24 01:44:48;;;;;;;2.05;0.70;;;19.60;62.70;;;;;;5057792;28;20507;-69
2023/03/24 01:47:14;;;;;;;3.38;0.95;;;19.60;62.70;;;;;;5058099;28;20543;-70
2023/03/24 01:49:41;;;;;;;1.90;0.70;;;19.60;62.70;;;;;;5058803;28;20171;-69
2023/03/24 01:52:10;;;;;;;2.42;1.10;;;19.60;62.60;;;;;;5023319;28;20399;-70
2023/03/24 01:54:41;;;;;;;3.60;0.88;;;19.60;62.70;;;;;;5024830;28;20488;-69
2023/03/24 01:57:26;;;;;;;1.55;0.80;;;19.60;62.70;;;;;;5023913;28;20503;-69
2023/03/24 01:59:53;;;;;;;2.88;0.93;;;19.60;62.70;;;;;;5058679;28;20048;-69
2023/03/24 02:02:20;;;;;;;2.47;1.03;;;19.60;62.70;;;;;;5008001;28;20045;-70
2023/03/24 02:04:52;;;;;;;1.63;0.80;;;19.60;62.60;;;;;;5040452;28;20082;-70
2023/03/24 02:07:42;;;;;;;1.67;0.75;;;19.60;62.60;;;;;;5058230;28;20124;-69
2023/03/24 02:10:12;;;;;;;2.30;0.75;;;19.50;62.50;;;;;;5040132;28;20061;-69
2023/03/24 02:12:38;;;;;;;1.58;0.85;;;19.60;62.60;;;;;;5040243;28;20041;-69
2023/03/24 02:15:04;;;;;;;1.38;0.70;;;19.50;62.60;;;;;;5057857;28;20041;-69
2023/03/24 02:17:30;;;;;;;2.30;1.00;;;19.50;62.60;;;;;;5024274;28;20116;-68
2023/03/24 02:20:09;;;;;;;2.80;0.70;;;19.50;62.60;;;;;;5057313;28;20535;-69
2023/03/24 02:22:51;;;;;;;1.42;0.80;;;19.50;62.50;;;;;;5058445;28;20464;-70
2023/03/24 02:25:50;;;;;;;1.58;0.60;;;19.50;62.60;;;;;;5008128;28;20155;-69
2023/03/24 02:28:43;;;;;;;1.58;0.70;;;19.50;62.50;;;;;;5060230;28;20049;-69
2023/03/24 02:31:27;;;;;;;1.98;0.80;;;19.50;62.50;;;;;;5077933;28;20044;-70
2023/03/24 02:34:19;;;;;;;1.92;0.80;;;19.50;62.60;;;;;;5060108;28;20052;-70
2023/03/24 02:36:57;;;;;;;1.65;0.80;;;19.50;62.70;;;;;;5077038;28;20455;-69
2023/03/24 02:39:44;;;;;;;1.70;0.68;;;19.50;62.60;;;;;;5060100;28;20452;-70
2023/03/24 02:42:10;;;;;;;2.90;0.90;;;19.50;62.60;;;;;;5077925;28;20399;-69
2023/03/24 02:44:53;;;;;;;2.28;0.98;;;19.50;62.60;;;;;;5058321;28;20120;-69
2023/03/24 02:47:30;;;;;;;1.95;1.00;;;19.50;62.50;;;;;;5056014;28;20052;-69
2023/03/24 02:50:05;;;;;;;1.70;0.80;;;19.50;62.50;;;;;;5074017;28;20059;-69
2023/03/24 02:52:35;;;;;;;2.13;0.80;;;19.50;62.60;;;;;;5057144;28;20532;-69
2023/03/24 02:55:08;;;;;;;2.22;0.73;;;19.50;62.50;;;;;;5039084;28;20055;-69
2023/03/24 02:57:49;;;;;;;3.03;0.90;;;19.40;62.50;;;;;;5075010;28;20090;-69
2023/03/24 03:00:43;;;;;;;2.28;0.90;;;19.40;62.40;;;;;;5055705;28;20047;-70
2023/03/24 03:03:12;;;;;;;1.63;0.57;;;19.50;62.50;;;;;;5014830;28;20053;-70
2023/03/24 03:05:58;;;;;;;1.58;0.82;;;19.50;62.50;;;;;;5036444;28;20158;-69
2023/03/24 03:08:26;;;;;;;1.55;0.63;;;19.40;62.40;;;;;;5038193;28;20060;-69
2023/03/24 03:10:51;;;;;;;1.83;0.85;;;19.40;62.40;;;;;;5036880;28;20595;-69
2023/03/24 03:13:26;;;;;;;2.38;0.82;;;19.40;62.40;;;;;;5036484;28;20380;-69
2023/03/24 03:15:54;;;;;;;3.63;0.80;;;19.40;62.40;;;;;;5036096;28;20124;-70
2023/03/24 03:18:24;;;;;;;1.83;0.80;;;19.40;62.50;;;;;;5019874;28;20049;-69
2023/03/24 03:20:52;;;;;;;2.03;0.85;;;19.40;62.50;;;;;;5036937;28;20559;-69
2023/03/24 03:23:36;;;;;;;1.85;0.73;;;19.40;62.50;;;;;;5019107;28;20172;-70
2023/03/24 03:26:05;;;;;;;1.80;0.70;;;19.40;62.40;;;;;;5020447;28;20061;-69
2023/03/24 03:28:35;;;;;;;2.53;0.90;;;19.40;62.50;;;;;;5020292;28;20037;-69
2023/03/24 03:31:04;;;;;;;1.67;0.80;;;19.40;62.50;;;;;;5019008;28;20049;-70
2023/03/24 03:33:45;;;;;;;2.45;1.10;;;19.40;62.50;;;;;;5020512;28;20041;-69
2023/03/24 03:36:21;;;;;;;2.05;0.80;;;19.40;62.40;;;;;;5037015;28;20532;-70
2023/03/24 03:39:10;;;;;;;2.05;0.77;;;19.40;62.50;;;;;;5054392;28;20127;-69
2023/03/24 03:41:36;;;;;;;1.30;0.80;;;19.40;62.50;;;;;;5022221;28;20044;-69
2023/03/24 03:44:01;;;;;;;1.98;0.80;;;19.40;62.50;;;;;;5018619;28;20049;-69
2023/03/24 03:46:27;;;;;;;2.05;0.80;;;19.40;62.50;;;;;;5019729;28;20045;-69
2023/03/24 03:48:52;;;;;;;3.22;0.85;;;19.40;62.50;;;;;;5036306;28;20412;-70
2023/03/24 03:51:18;;;;;;;1.48;0.80;;;19.40;62.40;;;;;;5018306;28;20049;-70
2023/03/24 03:53:49;;;;;;;1.33;0.63;;;19.40;62.40;;;;;;5035778;28;20098;-69
2023/03/24 03:56:17;;;;;;;2.22;0.70;;;19.40;62.50;;;;;;5035740;28;20049;-69
2023/03/24 03:58:45;;;;;;;1.25;0.70;;;19.40;62.40;;;;;;5018988;28;20447;-69
2023/03/24 04:01:13;;;;;;;;;;;19.40;62.40;;;;;;5053622;28;20124;-70
2023/03/24 04:04:08;;;;;;;2.03;0.82;;;19.40;62.40;;;;;;5019723;28;19921;-69
2023/03/24 04:06:57;;;;;;;1.00;0.70;;;19.40;62.40;;;;;;5022049;28;20049;-67
2023/03/24 04:09:31;;;;;;;1.70;0.90;;;19.40;62.40;;;;;;5035285;28;20041;-68
2023/03/24 04:12:02;;;;;;;1.10;0.60;;;19.50;62.40;;;;;;5035262;28;20048;-68
2023/03/24 04:14:57;;;;;;;1.73;0.70;;;19.50;62.40;;;;;;5035147;28;20087;-68
2023/03/24 04:17:49;;;;;;;2.17;0.70;;;19.50;62.50;;;;;;5021241;28;20048;-69
2023/03/24 04:20:21;;;;;;;1.40;0.80;;;19.50;62.40;;;;;;5034508;28;20045;-70
2023/03/24 04:23:01;;;;;;;1.98;0.95;;;19.50;63.00;;;;;;5035533;28;20127;-70
2023/03/24 04:25:29;;;;;;;1.55;0.70;;;19.50;62.40;;;;;;5034757;28;20041;-70
2023/03/24 04:28:02;;;;;;;1.65;0.85;;;19.50;62.40;;;;;;5035468;28;20496;-70
2023/03/24 04:30:36;;;;;;;1.92;0.70;;;19.60;62.40;;;;;;5018936;28;20091;-70
2023/03/24 04:33:34;;;;;;;1.42;0.73;;;19.60;62.40;;;;;;5051630;28;20059;-70
2023/03/24 04:36:05;;;;;;;1.52;0.80;;;19.60;62.40;;;;;;5008797;28;20122;-70
2023/03/24 04:38:31;;;;;;;1.58;0.77;;;19.60;62.40;;;;;;5019344;28;20045;-69
2023/03/24 04:40:57;;;;;;;1.17;0.70;;;19.70;62.30;;;;;;5034210;28;20048;-70
2023/03/24 04:43:25;;;;;;;1.08;0.60;;;19.60;62.30;;;;;;5035088;28;20112;-70
2023/03/24 04:45:56;;;;;;;2.45;0.90;;;19.70;62.30;;;;;;5034947;28;20109;-70
2023/03/24 04:48:22;;;;;;;1.60;0.75;;;19.70;62.20;;;;;;5034447;28;20049;-70
2023/03/24 04:50:59;;;;;;;2.10;0.70;;;19.70;62.20;;;;;;5034944;28;20037;-70
2023/03/24 04:53:24;;;;;;;1.45;0.70;;;19.70;62.20;;;;;;5034489;28;20037;-70
2023/03/24 04:55:50;;;;;;;1.27;0.60;;;19.70;62.10;;;;;;5052706;28;20040;-70
2023/03/24 04:58:16;;;;;;;1.50;0.70;;;19.70;62.10;;;;;;5034612;28;20120;-70
2023/03/24 05:00:42;;;;;;;1.20;0.70;;;19.70;62.10;;;;;;5034482;28;20128;-70
2023/03/24 05:03:12;;;;;;;2.03;0.73;;;19.80;62.10;;;;;;5071389;28;20047;-70
2023/03/24 05:05:42;;;;;;;1.60;0.90;;;19.80;62.10;;;;;;5071997;28;20040;-70
2023/03/24 05:08:07;;;;;;;1.85;0.70;;;19.80;62.10;;;;;;5052533;28;20112;-70
2023/03/24 05:10:34;;;;;;;1.30;0.65;;;19.80;62.10;;;;;;5054190;28;20194;-70
2023/03/24 05:13:00;;;;;;;2.13;0.73;;;19.80;62.00;;;;;;5072241;28;20095;-70
2023/03/24 05:15:25;;;;;;;1.13;0.60;;;19.80;62.00;;;;;;5053331;28;20144;-70
2023/03/24 05:17:51;;;;;;;3.33;0.88;;;19.80;62.00;;;;;;5072546;28;20127;-70
2023/03/24 05:20:17;;;;;;;1.48;0.60;;;19.90;62.00;;;;;;5072035;28;20040;-70
2023/03/24 05:22:43;;;;;;;1.77;0.73;;;19.90;62.00;;;;;;5071823;28;20089;-70
2023/03/24 05:25:08;;;;;;;1.33;0.70;;;19.90;61.90;;;;;;5053981;28;20040;-70
2023/03/24 05:27:34;;;;;;;2.28;0.75;;;19.90;62.00;;;;;;5054142;28;20036;-70
2023/03/24 05:30:00;;;;;;;1.67;0.60;;;19.90;61.90;;;;;;5071157;28;20040;-70
2023/03/24 05:32:26;;;;;;;1.75;0.70;;;19.90;61.90;;;;;;5054071;28;20151;-71
2023/03/24 05:34:51;;;;;;;1.55;0.70;;;19.90;61.90;;;;;;5072420;28;20048;-70
2023/03/24 05:37:17;;;;;;;2.78;0.98;;;19.90;61.90;;;;;;5071228;28;20423;-70
2023/03/24 05:39:43;;;;;;;1.27;0.70;;;19.90;61.80;;;;;;5072111;28;20037;-70
2023/03/24 05:42:09;;;;;;;1.88;0.70;;;19.90;61.80;;;;;;5071668;28;20055;-71
2023/03/24 05:44:34;;;;;;;2.00;0.85;;;19.90;61.80;;;;;;5071237;28;20044;-70
2023/03/24 05:47:00;;;;;;;2.22;0.70;;;20.00;61.80;;;;;;5071582;28;20039;-70
2023/03/24 05:49:26;;;;;;;1.55;0.90;;;20.00;61.80;;;;;;5053769;28;20043;-70
2023/03/24 05:51:51;;;;;;;1.77;0.60;;;20.00;61.70;;;;;;5053438;28;20059;-69
2023/03/24 05:54:17;;;;;;;2.97;0.73;;;20.00;61.80;;;;;;5053709;28;20036;-69
2023/03/24 05:56:42;;;;;;;2.55;0.60;;;20.00;61.70;;;;;;5071119;28;20048;-69
2023/03/24 05:59:08;;;;;;;1.40;0.60;;;20.00;61.70;;;;;;5053324;28;20072;-69
2023/03/24 06:01:33;;;;;;;3.25;0.80;;;20.00;61.60;;;;;;5071907;28;20044;-70
2023/03/24 06:03:59;;;;;;;1.52;0.63;;;20.00;61.60;;;;;;5053008;28;20428;-70
2023/03/24 06:06:27;;;;;;;1.42;0.65;;;20.00;61.60;;;;;;5071318;28;20056;-70
2023/03/24 06:08:53;;;;;;;2.33;0.60;;;20.00;61.60;;;;;;5071753;28;20514;-69
2023/03/24 06:11:19;;;;;;;2.53;0.70;;;20.00;61.60;;;;;;5070154;28;20059;-69
2023/03/24 06:13:45;;;;;;;1.73;0.60;;;20.00;61.60;;;;;;5072068;28;20076;-70
2023/03/24 06:16:11;;;;;;;2.03;0.80;;;20.00;61.60;;;;;;5059737;28;20084;-69
2023/03/24 06:18:39;;;;;;;2.42;0.60;;;20.00;61.60;;;;;;5033113;28;20067;-69
2023/03/24 06:21:05;;;;;;;0.97;0.40;;;20.10;61.60;;;;;;5053660;28;20094;-69
2023/03/24 06:23:32;;;;;;;1.55;0.65;;;20.10;61.60;;;;;;5055661;28;20052;-70
2023/03/24 06:26:00;;;;;;;2.47;0.80;;;20.10;61.60;;;;;;5036482;28;20490;-70
2023/03/24 06:28:29;;;;;;;2.33;0.70;;;20.10;61.50;;;;;;5037681;28;20068;-70
2023/03/24 06:30:55;;;;;;;1.58;0.50;;;20.10;61.50;;;;;;5055211;28;20051;-70
2023/03/24 06:33:24;;;;;;;1.35;0.55;;;20.10;61.50;;;;;;5054202;28;20033;-70
2023/03/24 06:35:50;;;;;;;1.02;0.60;;;20.10;61.40;;;;;;5055415;28;20040;-70
2023/03/24 06:38:16;;;;;;;2.10;0.60;;;20.10;61.50;;;;;;5054732;28;20091;-69
2023/03/24 06:40:41;;;;;;;1.92;0.50;;;20.10;61.50;;;;;;5036807;28;20057;-70
2023/03/24 06:43:07;;;;;;;1.23;0.60;;;20.10;61.40;;;;;;5036751;28;20124;-69
2023/03/24 06:45:33;;;;;;;3.13;0.57;;;20.10;61.40;;;;;;5055005;28;20171;-69
2023/03/24 06:47:59;;;;;;;1.23;0.47;;;20.10;61.40;;;;;;5036311;28;20033;-69
2023/03/24 06:50:29;;;;;;;1.67;0.50;;;20.10;61.40;;;;;;5054817;28;20067;-70
2023/03/24 06:52:55;;;;;;;1.63;0.63;;;20.10;61.30;;;;;;5054350;28;20048;-70
2023/03/24 06:55:21;;;;;;;1.70;0.70;;;20.10;61.30;;;;;;5036696;28;20045;-70
2023/03/24 06:57:46;;;;;;;1.23;0.65;;;20.20;61.40;;;;;;5055095;28;20041;-70
2023/03/24 07:00:12;;;;;;;2.80;0.77;;;20.10;61.40;;;;;;5036004;28;20056;-70
2023/03/24 07:02:39;;;;;;;2.17;0.80;;;20.10;61.30;;;;;;5054992;28;20384;-70
2023/03/24 07:05:06;;;;;;;2.63;0.63;;;20.20;61.30;;;;;;5036483;28;20049;-69
2023/03/24 07:07:32;;;;;;;1.50;0.70;;;20.20;61.30;;;;;;5053819;28;20040;-66
2023/03/24 07:09:57;;;;;;;1.98;0.77;;;20.20;61.30;;;;;;5036208;28;20071;-68
2023/03/24 07:12:23;;;;;;;4.97;0.88;;;20.20;61.30;;;;;;5054554;28;20136;-68
2023/03/24 07:14:49;;;;;;;3.22;0.88;;;20.20;61.30;;;;;;5053830;28;20480;-68
2023/03/24 07:17:14;;;;;;;2.85;0.70;;;20.20;61.30;;;;;;5054044;28;20059;-69
2023/03/24 07:19:40;;;;;;;4.28;0.77;;;20.20;61.30;;;;;;5054135;28;20049;-69
2023/03/24 07:22:07;;;;;;;5.90;0.80;;;20.20;61.30;;;;;;5035475;28;20041;-69
2023/03/24 07:24:34;;;;;;;4.05;0.93;;;20.20;61.30;;;;;;5054332;28;20416;-69
2023/03/24 07:27:00;;;;;;;1.75;0.60;;;20.20;61.30;;;;;;5036241;28;20048;-69
2023/03/24 07:29:26;;;;;;;2.55;1.05;;;20.30;61.30;;;;;;5035370;28;20476;-68
2023/03/24 07:31:53;;;;;;;4.40;0.70;;;20.20;61.30;;;;;;5053814;28;20528;-64
2023/03/24 07:34:19;;;;;;;3.72;0.95;;;20.30;61.30;;;;;;5054110;28;20033;-68
2023/03/24 07:36:45;;;;;;;3.28;0.80;;;20.30;61.30;;;;;;5053581;28;20049;-65
2023/03/24 07:39:12;;;;;;;4.03;0.68;;;20.30;61.30;;;;;;5035789;28;20104;-63
2023/03/24 07:41:37;;;;;;;2.60;0.70;;;20.30;61.30;;;;;;5054132;28;20080;-65
2023/03/24 07:44:03;;;;;;;2.15;0.70;;;20.30;61.30;;;;;;5042677;28;20079;-67
2023/03/24 07:46:29;;;;;;;4.82;0.90;;;20.30;61.40;;;;;;5056276;28;20047;-68
2023/03/24 07:48:54;;;;;;;5.60;1.05;;;20.30;61.50;;;;;;5053380;28;20075;-67
2023/03/24 07:51:20;;;;;;;4.88;0.90;;;20.30;61.60;;;;;;5067582;28;20514;-67
2023/03/24 07:53:46;;;;;;;4.75;1.08;;;20.30;61.60;;;;;;5055518;28;20369;-68
2023/03/24 07:56:12;;;;;;;4.85;1.10;;;20.30;61.70;;;;;;5064718;28;20051;-67
2023/03/24 07:58:38;;;;;;;2.97;0.73;;;20.30;61.70;;;;;;5041200;28;20124;-66
2023/03/24 08:01:08;;;;;;;4.03;0.80;;;20.30;62.40;;;;;;5052721;28;20174;-66
2023/03/24 08:03:35;;;;;;;3.50;0.88;;;20.30;61.90;;;;;;5035061;28;20064;-68
2023/03/24 08:06:01;;;;;;;4.40;1.00;;;20.30;61.90;;;;;;5035601;28;20135;-70
2023/03/24 08:08:26;;;;;;;3.45;0.82;;;20.40;62.00;;;;;;5053823;28;20587;-65
2023/03/24 08:10:52;;;;;;;14.88;1.35;;;20.30;62.00;;;;;;5052405;28;20053;-64
2023/03/24 08:13:18;;;;;;;5.97;1.08;;;20.30;62.10;;;;;;5034968;28;20507;-66
2023/03/24 08:15:43;;;;;;;3.50;0.85;;;20.40;62.10;;;;;;5060519;28;20040;-66
2023/03/24 08:18:09;;;;;;;4.45;0.85;;;20.40;62.10;;;;;;5072338;28;20086;-66
2023/03/24 08:20:35;;;;;;;4.40;0.77;;;20.40;62.00;;;;;;5070472;28;20127;-68
2023/03/24 08:23:03;;;;;;;9.85;1.30;;;20.40;62.00;;;;;;5069216;28;20055;-66
2023/03/24 08:25:29;;;;;;;;;;;20.40;62.10;;;;;;5072784;28;20062;-65
2023/03/24 08:27:55;;;;;;;10.93;1.23;;;20.40;62.10;;;;;;5073135;28;20290;-67
2023/03/24 08:30:22;;;;;;;8.52;1.30;;;20.40;62.10;;;;;;5072764;28;20044;-67
2023/03/24 08:32:52;;;;;;;12.82;1.85;;;20.40;62.10;;;;;;5072165;28;20044;-66
2023/03/24 08:35:20;;;;;;;12.90;1.73;;;20.40;62.10;;;;;;5054775;28;20052;-66
2023/03/24 08:37:46;;;;;;;11.13;1.65;;;20.40;62.10;;;;;;5072743;28;20045;-67
2023/03/24 08:40:17;;;;;;;11.40;1.95;;;20.40;62.10;;;;;;5072010;28;20121;-67
2023/03/24 08:42:42;;;;;;;13.52;1.52;;;20.40;62.10;;;;;;5072353;28;20036;-67
2023/03/24 08:45:10;;;;;;;14.05;1.98;;;20.40;62.10;;;;;;5072063;28;20045;-67
2023/03/24 08:47:36;;;;;;;15.15;2.17;;;20.40;62.10;;;;;;5054314;28;20472;-67
2023/03/24 08:50:01;;;;;;;10.30;1.80;;;20.40;62.10;;;;;;5072310;28;20064;-68
2023/03/24 08:52:27;;;;;;;8.88;1.80;;;20.40;62.00;;;;;;5071693;28;20087;-68
2023/03/24 08:54:52;;;;;;;11.40;1.50;;;20.40;62.00;;;;;;5072135;28;20040;-67
2023/03/24 08:57:18;;;;;;;7.28;1.30;;;20.40;62.00;;;;;;5054160;28;20562;-67
2023/03/24 08:59:45;;;;;;;12.45;1.65;;;20.40;62.00;;;;;;5062526;28;20033;-66
2023/03/24 09:02:11;;;;;;;9.25;1.60;;;20.40;62.00;;;;;;5044287;28;20087;-67
2023/03/24 09:04:37;;;;;;;7.85;1.98;;;20.40;62.00;;;;;;5062472;28;20476;-67
2023/03/24 09:07:02;;;;;;;10.63;1.67;;;20.40;62.00;;;;;;5068028;28;20070;-67
2023/03/24 09:09:28;;;;;;;10.10;2.05;;;20.40;62.00;;;;;;5072180;28;20047;-66
2023/03/24 09:11:54;;;;;;;9.90;1.52;;;20.30;61.90;;;;;;5054665;28;20048;-67
2023/03/24 09:14:21;;;;;;;8.95;1.40;;;20.40;61.90;;;;;;5071176;28;20491;-67
2023/03/24 09:16:48;;;;;;;8.80;1.20;;;20.40;61.80;;;;;;5072191;28;20487;-67
2023/03/24 09:19:15;;;;;;;8.00;1.53;;;20.40;61.80;;;;;;5071975;28;20040;-67
2023/03/24 09:21:44;;;;;;;8.60;1.50;;;20.40;61.70;;;;;;5071247;28;20496;-67
2023/03/24 09:24:10;;;;;;;8.85;1.50;;;20.40;61.70;;;;;;5053838;28;20503;-67
2023/03/24 09:26:36;;;;;;;7.47;1.98;;;20.40;61.60;;;;;;5072381;28;20044;-67
2023/03/24 09:29:02;;;;;;;7.70;1.42;;;20.40;61.50;;;;;;5070768;28;20076;-67
2023/03/24 09:31:27;;;;;;;6.53;1.40;;;20.40;61.50;;;;;;5054044;28;20050;-67
2023/03/24 09:33:53;;;;;;;6.03;1.35;;;20.40;61.50;;;;;;5072034;28;20033;-66
2023/03/24 09:36:18;;;;;;;10.52;1.75;;;20.40;61.40;;;;;;5071169;28;20493;-67
2023/03/24 09:38:44;;;;;;;8.00;1.42;;;20.50;61.40;;;;;;5072320;28;20097;-67
2023/03/24 09:41:16;;;;;;;7.85;1.45;;;20.50;61.40;;;;;;5054060;28;20055;-67
2023/03/24 09:43:44;;;;;;;10.02;1.35;;;20.50;61.30;;;;;;5053454;28;20040;-67
2023/03/24 09:46:41;;;;;;;5.97;1.45;;;20.50;61.20;;;;;;5037635;28;20064;-66
2023/03/24 09:49:10;;;;;;;6.25;1.50;;;20.60;61.30;;;;;;5044517;28;20503;-67
2023/03/24 09:51:40;;;;;;;8.52;1.70;;;20.60;61.30;;;;;;5037805;28;20040;-66
2023/03/24 09:54:11;;;;;;;5.68;1.13;;;20.60;61.20;;;;;;5054537;28;20072;-68
2023/03/24 09:56:38;;;;;;;7.63;1.27;;;20.60;61.10;;;;;;5075453;28;20049;-67
2023/03/24 09:59:18;;;;;;;6.47;1.15;;;20.70;61.10;;;;;;5041017;28;20048;-67
2023/03/24 10:01:44;;;;;;;7.70;1.40;;;20.70;61.00;;;;;;5058513;28;20043;-65
2023/03/24 10:04:23;;;;;;;9.30;1.40;;;20.70;61.00;;;;;;5074888;28;20040;-65
2023/03/24 10:07:08;;;;;;;5.20;1.27;;;20.70;60.90;;;;;;5041192;28;20044;-67
2023/03/24 10:09:35;;;;;;;8.98;1.63;;;20.70;60.90;;;;;;5060261;28;20080;-67
2023/03/24 10:12:16;;;;;;;6.60;1.00;;;20.70;60.80;;;;;;5056921;28;20052;-66
2023/03/24 10:15:08;;;;;;;7.90;1.15;;;20.70;60.70;;;;;;5041896;28;20040;-67
2023/03/24 10:17:49;;;;;;;5.85;1.45;;;20.70;60.70;;;;;;5022449;28;20057;-67
2023/03/24 10:20:38;;;;;;;8.07;1.20;;;20.70;60.60;;;;;;5057565;28;20045;-67
2023/03/24 10:23:31;;;;;;;8.50;1.98;;;20.70;60.50;;;;;;5040577;28;20102;-67
2023/03/24 10:26:21;;;;;;;7.05;1.40;;;20.70;60.70;;;;;;5075165;28;20403;-67
2023/03/24 10:28:51;;;;;;;8.27;1.80;;;20.70;60.60;;;;;;5038562;28;20391;-67
2023/03/24 10:31:18;;;;;;;9.65;1.50;;;20.70;60.80;;;;;;5055695;28;20048;-67
2023/03/24 10:33:44;;;;;;;6.85;1.20;;;20.70;60.80;;;;;;5048403;28;20411;-69
2023/03/24 10:36:17;;;;;;;11.07;2.17;;;20.70;61.00;;;;;;5036802;28;20041;-67
2023/03/24 10:38:43;;;;;;;12.68;1.83;;;20.70;61.30;;;;;;5047359;28;20136;-67
2023/03/24 10:41:20;;;;;;;7.97;2.05;;;20.70;61.30;;;;;;5054914;28;20184;-67
2023/03/24 10:43:46;;;;;;;12.68;1.88;;;20.80;61.40;;;;;;5054248;28;20060;-67
2023/03/24 10:46:14;;;;;;;11.88;2.05;;;20.80;61.40;;;;;;5052935;28;20400;-67
2023/03/24 10:48:41;;;;;;;10.35;1.90;;;20.80;61.50;;;;;;5037927;28;20101;-68
2023/03/24 10:51:17;;;;;;;10.10;2.20;;;20.80;61.60;;;;;;5065117;28;20048;-68
2023/03/24 10:53:46;;;;;;;14.38;1.70;;;20.80;61.60;;;;;;5063952;28;20124;-68
2023/03/24 10:56:18;;;;;;;11.20;1.65;;;20.80;61.70;;;;;;5069323;28;20490;-68
2023/03/24 10:58:45;;;;;;;9.70;2.10;;;20.80;61.70;;;;;;5054340;28;20044;-69
2023/03/24 11:01:23;;;;;;;9.07;1.92;;;20.80;61.50;;;;;;5045231;28;20044;-69
2023/03/24 11:03:49;;;;;;;11.48;1.85;;;20.90;61.40;;;;;;5020818;28;20063;-69
2023/03/24 11:06:19;;;;;;;11.07;1.95;;;20.90;61.30;;;;;;5052820;28;20033;-69
2023/03/24 11:08:45;;;;;;;14.23;2.00;;;20.90;61.20;;;;;;5054480;28;20116;-69
2023/03/24 11:11:22;;;;;;;9.52;1.60;;;20.90;61.20;;;;;;5019431;28;20132;-69
2023/03/24 11:13:54;;;;;;;9.98;1.98;;;20.90;61.10;;;;;;5053695;28;20416;-69
2023/03/24 11:16:19;;;;;;;12.38;2.03;;;20.90;61.10;;;;;;5036605;28;20106;-69
2023/03/24 11:18:55;;;;;;;12.07;2.03;;;20.90;61.10;;;;;;5020001;28;20112;-68
2023/03/24 11:21:21;;;;;;;9.30;1.85;;;20.90;61.00;;;;;;5035334;28;20041;-68
2023/03/24 11:23:46;;;;;;;8.10;2.08;;;21.00;61.10;;;;;;5054295;28;20065;-72
2023/03/24 11:26:13;;;;;;;14.60;2.22;;;21.00;61.00;;;;;;5019748;28;20041;-69
2023/03/24 11:28:40;;;;;;;16.80;2.25;;;21.00;60.90;;;;;;5035686;28;20045;-73
2023/03/24 11:31:10;;;;;;;14.27;1.75;;;21.00;60.90;;;;;;5019283;28;20041;-72
2023/03/24 11:33:42;;;;;;;23.90;2.17;;;21.00;60.80;;;;;;5036240;28;20549;-67
2023/03/24 11:36:27;;;;;;;12.07;2.10;;;21.00;60.70;;;;;;5035220;28;20048;-74
2023/03/24 11:39:09;;;;;;;10.90;2.20;;;21.00;60.50;;;;;;5056198;28;20171;-71
2023/03/24 11:41:36;;;;;;;12.02;2.25;;;21.00;60.50;;;;;;5063940;28;20041;-69
2023/03/24 11:44:31;;;;;;;7.82;1.73;;;20.90;60.50;;;;;;5044725;28;20086;-75
2023/03/24 11:47:16;;;;;;;12.35;2.03;;;20.90;60.40;;;;;;5038355;28;20110;-72
2023/03/24 11:49:51;;;;;;;11.27;1.95;;;20.90;60.40;;;;;;5053561;28;20044;-77
2023/03/24 11:52:27;;;;;;;11.90;1.80;;;20.90;60.30;;;;;;5052455;28;20516;-76
2023/03/24 11:54:53;;;;;;;10.98;1.80;;;21.00;60.20;;;;;;5036171;28;20094;-74
2023/03/24 11:57:34;;;;;;;6.68;1.60;;;21.00;60.10;;;;;;5052736;28;20124;-75
2023/03/24 12:00:07;;;;;;;8.32;1.65;;;21.00;60.00;;;;;;5053256;28;20049;-74
2023/03/24 12:02:48;;;;;;;9.52;1.70;;;21.00;60.00;;;;;;5051908;28;20049;-77
2023/03/24 12:05:22;;;;;;;10.82;1.63;;;21.00;59.80;;;;;;5052134;28;20081;-71
2023/03/24 12:08:42;;;;;;;8.35;1.45;;;21.20;59.70;;;;;;5053476;28;20044;-70
2023/03/24 12:11:19;;;;;;;6.72;1.35;;;21.20;59.60;;;;;;4989878;28;20454;-68
2023/03/24 12:13:50;;;;;;;6.22;1.55;;;21.30;59.50;;;;;;5044178;28;20077;-72
2023/03/24 12:16:24;;;;;;;7.47;1.70;;;21.30;59.50;;;;;;5051343;28;20059;-71
2023/03/24 12:19:22;;;;;;;8.63;1.77;;;21.30;59.60;;;;;;5052193;28;20052;-70
2023/03/24 12:22:12;;;;;;;6.32;1.42;;;21.20;59.40;;;;;;5052060;28;20053;-70
2023/03/24 12:24:51;;;;;;;6.85;1.35;;;21.20;59.50;;;;;;5044269;28;20408;-70
2023/03/24 12:27:56;;;;;;;6.65;1.63;;;21.10;59.40;;;;;;5051327;28;20045;-70
2023/03/24 12:30:46;;;;;;;6.20;1.27;;;21.20;59.40;;;;;;5041344;28;20053;-71
2023/03/24 12:33:26;;;;;;;10.60;2.00;;;21.20;59.30;;;;;;5047558;28;20046;-71
2023/03/24 12:36:21;;;;;;;5.28;1.25;;;21.20;59.30;;;;;;5033767;28;20072;-70
2023/03/24 12:39:11;;;;;;;8.93;2.00;;;21.20;59.30;;;;;;5051109;28;20053;-69
2023/03/24 12:42:05;;;;;;;8.52;1.90;;;21.20;59.30;;;;;;5045564;28;20045;-71
2023/03/24 12:44:40;;;;;;;7.32;1.90;;;21.20;59.20;;;;;;5039969;28;20040;-70
2023/03/24 12:47:48;;;;;;;8.85;1.77;;;21.20;59.80;;;;;;5041761;28;20496;-69
2023/03/24 12:50:25;;;;;;;9.35;1.92;;;21.20;59.00;;;;;;5027936;28;20496;-71
2023/03/24 12:53:21;;;;;;;5.63;1.60;;;21.20;59.00;;;;;;5042116;28;20424;-69
2023/03/24 12:55:49;;;;;;;6.90;1.50;;;21.20;58.90;;;;;;5042292;28;20048;-70
2023/03/24 12:58:41;;;;;;;8.20;2.03;;;21.10;58.80;;;;;;5040046;28;20038;-70
2023/03/24 13:01:28;;;;;;;8.32;2.00;;;21.10;58.80;;;;;;5057034;28;20493;-70
2023/03/24 13:04:25;;;;;;;10.15;1.80;;;21.20;58.80;;;;;;5043087;28;20092;-69
2023/03/24 13:07:13;;;;;;;6.57;1.25;;;21.20;58.80;;;;;;5057311;28;20448;-69